createdAt,value
2019-03-22T00:00:44.026Z,51.61
2019-03-22T00:01:46.264Z,51.73
2019-03-22T00:02:48.455Z,51.69
2019-03-22T00:03:50.658Z,51.61
2019-03-22T00:04:52.864Z,51.71
2019-03-22T00:05:55.079Z,51.62
2019-03-22T00:06:57.364Z,51.59
2019-03-22T00:07:59.510Z,51.73
2019-03-22T00:09:01.843Z,51.66
2019-03-22T00:10:04.035Z,51.64
2019-03-22T00:11:06.243Z,51.79
2019-03-22T00:12:08.477Z,51.67
2019-03-22T00:13:10.666Z,51.75
2019-03-22T00:14:12.787Z,51.60
2019-03-22T00:15:15.005Z,51.54
2019-03-22T00:16:17.191Z,51.73
2019-03-22T00:17:19.407Z,51.71
2019-03-22T00:18:21.647Z,51.71
2019-03-22T00:19:23.873Z,51.73
2019-03-22T00:20:26.066Z,51.60
2019-03-22T00:21:28.282Z,51.57
2019-03-22T00:22:30.503Z,51.62
2019-03-22T00:23:32.702Z,51.61
2019-03-22T00:24:34.834Z,51.56
2019-03-22T00:25:37.459Z,51.60
2019-03-22T00:26:39.658Z,51.63
2019-03-22T00:27:41.863Z,51.70
2019-03-22T00:28:44.130Z,51.63
2019-03-22T00:29:46.293Z,51.54
2019-03-22T00:30:48.486Z,51.60
2019-03-22T00:31:50.691Z,51.53
2019-03-22T00:32:54.112Z,51.62
2019-03-22T00:33:56.430Z,51.44
2019-03-22T00:34:58.643Z,51.60
2019-03-22T00:36:00.847Z,51.53
2019-03-22T00:37:03.419Z,51.54
2019-03-22T00:38:05.940Z,51.58
2019-03-22T00:39:08.148Z,51.43
2019-03-22T00:40:10.365Z,51.53
2019-03-22T00:41:12.554Z,51.51
2019-03-22T00:42:14.700Z,51.51
2019-03-22T00:43:16.906Z,51.52
2019-03-22T00:44:19.115Z,51.65
2019-03-22T00:45:21.312Z,51.54
2019-03-22T00:46:23.514Z,51.45
2019-03-22T00:47:25.742Z,51.51
2019-03-22T00:48:27.982Z,51.43
2019-03-22T00:49:30.154Z,51.50
2019-03-22T00:50:32.362Z,51.59
2019-03-22T00:51:34.632Z,51.59
2019-03-22T00:52:36.852Z,51.60
2019-03-22T00:53:39.072Z,51.58
2019-03-22T00:54:41.366Z,51.56
2019-03-22T00:55:43.761Z,51.36
2019-03-22T00:56:48.960Z,51.41
2019-03-22T00:57:51.173Z,51.55
2019-03-22T00:58:53.395Z,51.51
2019-03-22T00:59:55.600Z,51.36
2019-03-22T01:00:57.802Z,51.45
2019-03-22T01:02:00.017Z,51.44
2019-03-22T01:03:02.252Z,51.42
2019-03-22T01:04:04.482Z,51.23
2019-03-22T01:05:06.694Z,51.45
2019-03-22T01:06:08.894Z,51.50
2019-03-22T01:07:11.244Z,51.40
2019-03-22T01:08:13.432Z,51.39
2019-03-22T01:09:15.628Z,51.35
2019-03-22T01:10:17.919Z,51.41
2019-03-22T01:11:20.124Z,51.26
2019-03-22T01:12:22.319Z,51.32
2019-03-22T01:13:24.528Z,51.32
2019-03-22T01:14:28.302Z,51.36
2019-03-22T01:15:30.477Z,51.38
2019-03-22T01:16:32.677Z,51.30
2019-03-22T01:17:34.909Z,51.27
2019-03-22T01:18:38.838Z,51.39
2019-03-22T01:19:41.044Z,51.36
2019-03-22T01:20:43.237Z,51.30
2019-03-22T01:21:45.507Z,51.26
2019-03-22T01:22:47.728Z,51.26
2019-03-22T01:23:49.922Z,51.33
2019-03-22T01:24:52.130Z,51.22
2019-03-22T01:25:54.327Z,51.34
2019-03-22T01:26:56.526Z,51.24
2019-03-22T01:27:58.811Z,51.28
2019-03-22T01:29:01.186Z,51.31
2019-03-22T01:30:03.390Z,51.36
2019-03-22T01:31:07.347Z,51.43
2019-03-22T01:32:09.551Z,51.28
2019-03-22T01:33:14.146Z,51.35
2019-03-22T01:34:16.346Z,51.32
2019-03-22T01:35:18.506Z,51.29
2019-03-22T01:36:20.716Z,51.23
2019-03-22T01:37:22.915Z,51.16
2019-03-22T01:38:25.174Z,51.32
2019-03-22T01:39:27.376Z,51.27
2019-03-22T01:40:29.590Z,51.13
2019-03-22T01:41:31.726Z,51.16
2019-03-22T01:42:34.044Z,51.26
2019-03-22T01:43:38.765Z,51.24
2019-03-22T01:44:40.981Z,51.10
2019-03-22T01:45:43.189Z,51.22
2019-03-22T01:46:45.394Z,51.23
2019-03-22T01:47:47.628Z,51.11
2019-03-22T01:48:49.838Z,51.15
2019-03-22T01:49:52.046Z,51.17
2019-03-22T01:50:54.266Z,51.27
2019-03-22T01:51:56.478Z,51.24
2019-03-22T01:52:58.712Z,51.25
2019-03-22T01:54:00.913Z,51.19
2019-03-22T01:55:03.171Z,51.14
2019-03-22T01:56:05.364Z,51.15
2019-03-22T01:57:07.575Z,51.20
2019-03-22T01:58:09.836Z,51.17
2019-03-22T01:59:15.039Z,51.23
2019-03-22T02:00:17.561Z,51.24
2019-03-22T02:01:19.761Z,51.35
2019-03-22T02:02:21.971Z,51.32
2019-03-22T02:03:24.176Z,51.16
2019-03-22T02:04:26.373Z,51.14
2019-03-22T02:05:28.650Z,51.08
2019-03-22T02:06:30.956Z,51.13
2019-03-22T02:07:33.212Z,51.18
2019-03-22T02:08:35.435Z,51.14
2019-03-22T02:09:37.641Z,51.13
2019-03-22T02:10:39.853Z,51.09
2019-03-22T02:11:42.131Z,51.14
2019-03-22T02:12:45.178Z,50.97
2019-03-22T02:13:47.436Z,51.05
2019-03-22T02:14:49.644Z,51.06
2019-03-22T02:15:51.875Z,51.09
2019-03-22T02:16:54.051Z,51.05
2019-03-22T02:17:56.251Z,51.13
2019-03-22T02:18:58.468Z,50.88
2019-03-22T02:20:00.677Z,50.97
2019-03-22T02:21:05.435Z,51.06
2019-03-22T02:22:07.648Z,51.08
2019-03-22T02:23:09.853Z,51.01
2019-03-22T02:24:12.266Z,51.06
2019-03-22T02:25:14.385Z,51.00
2019-03-22T02:26:16.587Z,50.95
2019-03-22T02:27:18.811Z,50.92
2019-03-22T02:28:20.998Z,50.86
2019-03-22T02:29:24.797Z,50.94
2019-03-22T02:30:26.933Z,51.04
2019-03-22T02:31:29.140Z,51.05
2019-03-22T02:32:31.330Z,50.87
2019-03-22T02:33:33.535Z,50.95
2019-03-22T02:34:35.732Z,50.94
2019-03-22T02:35:37.952Z,50.92
2019-03-22T02:36:40.296Z,50.86
2019-03-22T02:37:42.503Z,50.93
2019-03-22T02:38:44.725Z,51.05
2019-03-22T02:39:47.058Z,51.11
2019-03-22T02:40:49.443Z,50.91
2019-03-22T02:41:51.644Z,50.93
2019-03-22T02:42:53.852Z,51.07
2019-03-22T02:43:56.072Z,50.80
2019-03-22T02:44:58.271Z,50.86
2019-03-22T02:46:00.490Z,50.82
2019-03-22T02:47:05.893Z,50.80
2019-03-22T02:48:08.094Z,50.79
2019-03-22T02:49:10.311Z,50.75
2019-03-22T02:50:18.364Z,50.95
2019-03-22T02:51:16.375Z,50.97
2019-03-22T02:52:18.609Z,51.00
2019-03-22T02:53:20.811Z,50.95
2019-03-22T02:54:23.028Z,50.96
2019-03-22T02:55:25.233Z,50.82
2019-03-22T02:56:27.450Z,50.95
2019-03-22T02:57:29.640Z,50.89
2019-03-22T02:58:31.834Z,50.93
2019-03-22T02:59:34.072Z,50.96
2019-03-22T03:00:36.264Z,50.87
2019-03-22T03:01:38.467Z,50.95
2019-03-22T03:02:40.690Z,50.88
2019-03-22T03:03:42.948Z,50.87
2019-03-22T03:04:45.179Z,50.88
2019-03-22T03:05:47.422Z,50.97
2019-03-22T03:06:49.621Z,51.03
2019-03-22T03:07:51.835Z,50.92
2019-03-22T03:08:54.062Z,50.96
2019-03-22T03:09:56.532Z,51.04
2019-03-22T03:10:58.729Z,50.77
2019-03-22T03:12:00.862Z,50.89
2019-03-22T03:13:05.143Z,50.85
2019-03-22T03:14:07.343Z,50.85
2019-03-22T03:15:09.534Z,50.87
2019-03-22T03:16:11.932Z,50.95
2019-03-22T03:17:14.126Z,50.86
2019-03-22T03:18:16.333Z,50.89
2019-03-22T03:19:18.484Z,50.90
2019-03-22T03:20:20.729Z,50.77
2019-03-22T03:21:23.001Z,50.81
2019-03-22T03:22:25.205Z,50.88
2019-03-22T03:23:27.429Z,50.83
2019-03-22T03:24:29.659Z,50.88
2019-03-22T03:25:31.858Z,50.94
2019-03-22T03:26:36.045Z,50.92
2019-03-22T03:27:37.948Z,50.80
2019-03-22T03:28:40.128Z,50.81
2019-03-22T03:29:42.347Z,50.76
2019-03-22T03:30:44.557Z,50.79
2019-03-22T03:31:46.776Z,50.72
2019-03-22T03:32:49.132Z,50.88
2019-03-22T03:33:51.432Z,50.81
2019-03-22T03:34:53.601Z,50.73
2019-03-22T03:35:57.364Z,50.75
2019-03-22T03:36:59.558Z,50.81
2019-03-22T03:38:01.747Z,50.88
2019-03-22T03:39:04.775Z,50.98
2019-03-22T03:40:06.998Z,50.57
2019-03-22T03:41:09.213Z,50.67
2019-03-22T03:42:11.410Z,50.76
2019-03-22T03:43:13.625Z,50.75
2019-03-22T03:44:15.823Z,50.70
2019-03-22T03:45:18.039Z,50.69
2019-03-22T03:46:22.023Z,50.79
2019-03-22T03:47:24.225Z,50.78
2019-03-22T03:48:26.431Z,50.77
2019-03-22T03:49:28.652Z,50.81
2019-03-22T03:50:30.855Z,50.77
2019-03-22T03:51:33.065Z,50.60
2019-03-22T03:52:35.273Z,50.75
2019-03-22T03:53:37.465Z,50.75
2019-03-22T03:54:39.783Z,50.75
2019-03-22T03:55:41.988Z,50.91
2019-03-22T03:56:44.187Z,50.97
2019-03-22T03:57:46.378Z,50.74
2019-03-22T03:58:52.688Z,50.71
2019-03-22T03:59:52.473Z,50.74
2019-03-22T04:00:54.671Z,50.68
2019-03-22T04:01:56.889Z,50.65
2019-03-22T04:02:59.249Z,50.59
2019-03-22T04:04:01.453Z,50.64
2019-03-22T04:05:03.674Z,50.57
2019-03-22T04:06:05.979Z,50.63
2019-03-22T04:07:09.904Z,50.66
2019-03-22T04:08:12.112Z,50.67
2019-03-22T04:09:14.324Z,50.82
2019-03-22T04:10:16.518Z,50.83
2019-03-22T04:11:18.719Z,50.72
2019-03-22T04:12:22.931Z,50.71
2019-03-22T04:13:25.156Z,50.68
2019-03-22T04:14:27.349Z,50.61
2019-03-22T04:15:31.585Z,50.66
2019-03-22T04:16:33.787Z,50.91
2019-03-22T04:17:36.005Z,50.64
2019-03-22T04:18:38.201Z,50.67
2019-03-22T04:19:40.447Z,50.70
2019-03-22T04:20:45.634Z,50.61
2019-03-22T04:21:47.840Z,50.67
2019-03-22T04:22:50.059Z,50.65
2019-03-22T04:23:52.267Z,50.76
2019-03-22T04:24:54.495Z,50.88
2019-03-22T04:25:56.699Z,50.92
2019-03-22T04:26:58.916Z,50.89
2019-03-22T04:28:01.127Z,50.78
2019-03-22T04:29:07.892Z,50.72
2019-03-22T04:30:07.188Z,50.67
2019-03-22T04:31:09.384Z,50.70
2019-03-22T04:32:11.586Z,50.68
2019-03-22T04:33:13.793Z,50.72
2019-03-22T04:34:15.979Z,50.67
2019-03-22T04:35:18.210Z,50.78
2019-03-22T04:36:20.405Z,50.63
2019-03-22T04:37:22.587Z,50.59
2019-03-22T04:38:24.789Z,50.66
2019-03-22T04:39:26.984Z,50.59
2019-03-22T04:40:29.225Z,50.59
2019-03-22T04:41:31.433Z,50.69
2019-03-22T04:42:33.901Z,50.73
2019-03-22T04:43:36.145Z,50.76
2019-03-22T04:44:38.353Z,50.70
2019-03-22T04:45:40.566Z,50.54
2019-03-22T04:46:42.780Z,50.62
2019-03-22T04:47:46.156Z,50.54
2019-03-22T04:48:48.489Z,50.60
2019-03-22T04:49:50.694Z,50.68
2019-03-22T04:50:52.907Z,50.80
2019-03-22T04:51:55.107Z,50.55
2019-03-22T04:52:57.307Z,50.60
2019-03-22T04:53:59.522Z,50.52
2019-03-22T04:55:01.731Z,50.74
2019-03-22T04:56:03.956Z,50.73
2019-03-22T04:57:06.159Z,50.68
2019-03-22T04:58:08.373Z,50.78
2019-03-22T04:59:18.869Z,50.66
2019-03-22T05:00:14.434Z,50.71
2019-03-22T05:01:16.644Z,50.68
2019-03-22T05:02:18.850Z,50.72
2019-03-22T05:03:21.060Z,50.84
2019-03-22T05:04:23.260Z,50.87
2019-03-22T05:05:25.491Z,50.85
2019-03-22T05:06:27.703Z,50.71
2019-03-22T05:07:29.944Z,50.59
2019-03-22T05:08:32.155Z,50.53
2019-03-22T05:09:34.353Z,50.60
2019-03-22T05:10:36.757Z,50.62
2019-03-22T05:11:38.955Z,50.75
2019-03-22T05:12:41.351Z,50.72
2019-03-22T05:13:43.567Z,50.82
2019-03-22T05:14:45.871Z,50.76
2019-03-22T05:15:48.111Z,50.61
2019-03-22T05:16:50.315Z,50.73
2019-03-22T05:17:54.161Z,50.71
2019-03-22T05:18:56.365Z,50.57
2019-03-22T05:19:58.596Z,50.72
2019-03-22T05:21:00.797Z,50.80
2019-03-22T05:22:03.009Z,50.85
2019-03-22T05:23:05.270Z,50.79
2019-03-22T05:24:07.431Z,50.85
2019-03-22T05:25:09.649Z,50.76
2019-03-22T05:26:11.872Z,50.73
2019-03-22T05:27:14.093Z,50.87
2019-03-22T05:28:16.313Z,50.93
2019-03-22T05:29:29.864Z,50.87
2019-03-22T05:30:22.375Z,50.90
2019-03-22T05:31:24.583Z,50.82
2019-03-22T05:32:26.881Z,50.79
2019-03-22T05:33:29.093Z,50.78
2019-03-22T05:34:31.305Z,50.77
2019-03-22T05:35:36.162Z,50.57
2019-03-22T05:36:38.389Z,50.55
2019-03-22T05:37:40.591Z,50.71
2019-03-22T05:38:42.791Z,50.81
2019-03-22T05:39:45.001Z,50.85
2019-03-22T05:40:47.203Z,50.81
2019-03-22T05:41:51.321Z,50.86
2019-03-22T05:42:53.275Z,50.98
2019-03-22T05:43:55.593Z,50.97
2019-03-22T05:44:57.719Z,51.03
2019-03-22T05:45:59.937Z,51.03
2019-03-22T05:47:05.127Z,50.96
2019-03-22T05:48:07.317Z,50.74
2019-03-22T05:49:09.436Z,50.95
2019-03-22T05:50:11.637Z,50.94
2019-03-22T05:51:13.767Z,50.89
2019-03-22T05:52:15.981Z,50.86
2019-03-22T05:53:18.166Z,50.83
2019-03-22T05:54:20.375Z,50.83
2019-03-22T05:55:22.581Z,50.87
2019-03-22T05:56:24.790Z,50.86
2019-03-22T05:57:27.043Z,50.96
2019-03-22T05:58:29.274Z,50.89
2019-03-22T05:59:41.874Z,50.95
2019-03-22T06:00:36.543Z,50.82
2019-03-22T06:01:38.765Z,50.85
2019-03-22T06:02:40.999Z,50.92
2019-03-22T06:03:43.202Z,50.79
2019-03-22T06:04:45.407Z,50.74
2019-03-22T06:05:47.662Z,50.72
2019-03-22T06:06:49.877Z,50.63
2019-03-22T06:07:52.030Z,50.64
2019-03-22T06:08:54.504Z,50.69
2019-03-22T06:09:56.699Z,50.83
2019-03-22T06:10:58.902Z,50.82
2019-03-22T06:12:01.097Z,50.88
2019-03-22T06:13:03.320Z,50.86
2019-03-22T06:14:05.534Z,50.70
2019-03-22T06:15:07.718Z,50.65
2019-03-22T06:16:12.896Z,50.72
2019-03-22T06:17:15.121Z,50.72
2019-03-22T06:18:17.336Z,50.76
2019-03-22T06:19:19.544Z,50.73
2019-03-22T06:20:21.739Z,50.73
2019-03-22T06:21:23.943Z,50.70
2019-03-22T06:22:26.366Z,50.85
2019-03-22T06:23:28.575Z,50.62
2019-03-22T06:24:30.782Z,50.68
2019-03-22T06:25:32.985Z,50.56
2019-03-22T06:26:35.192Z,50.58
2019-03-22T06:27:37.417Z,50.64
2019-03-22T06:28:40.736Z,50.44
2019-03-22T06:29:53.648Z,50.62
2019-03-22T06:30:46.803Z,50.62
2019-03-22T06:31:49.074Z,50.65
2019-03-22T06:32:51.296Z,50.58
2019-03-22T06:33:53.510Z,50.58
2019-03-22T06:34:55.724Z,50.49
2019-03-22T06:35:57.918Z,50.51
2019-03-22T06:37:01.464Z,50.69
2019-03-22T06:38:03.715Z,50.66
2019-03-22T06:39:05.916Z,50.76
2019-03-22T06:40:08.137Z,50.70
2019-03-22T06:41:10.360Z,50.70
2019-03-22T06:42:12.552Z,50.65
2019-03-22T06:43:14.770Z,50.59
2019-03-22T06:44:16.988Z,50.60
2019-03-22T06:45:19.192Z,50.55
2019-03-22T06:46:21.410Z,50.48
2019-03-22T06:47:23.624Z,50.51
2019-03-22T06:48:25.832Z,50.58
2019-03-22T06:49:28.048Z,50.67
2019-03-22T06:50:30.267Z,50.74
2019-03-22T06:51:33.672Z,50.61
2019-03-22T06:52:35.788Z,50.52
2019-03-22T06:53:38.027Z,50.52
2019-03-22T06:54:40.241Z,50.42
2019-03-22T06:55:42.454Z,50.45
2019-03-22T06:56:44.786Z,50.44
2019-03-22T06:57:47.016Z,50.53
2019-03-22T06:58:49.223Z,50.53
2019-03-22T06:59:51.430Z,50.67
2019-03-22T07:00:55.431Z,50.46
2019-03-22T07:01:57.638Z,50.44
2019-03-22T07:02:59.874Z,50.48
2019-03-22T07:04:02.079Z,50.57
2019-03-22T07:05:04.299Z,50.63
2019-03-22T07:06:06.504Z,50.48
2019-03-22T07:07:08.712Z,50.54
2019-03-22T07:08:11.072Z,50.59
2019-03-22T07:09:13.292Z,50.52
2019-03-22T07:10:15.485Z,50.58
2019-03-22T07:11:17.815Z,50.50
2019-03-22T07:12:20.025Z,50.58
2019-03-22T07:13:22.230Z,50.37
2019-03-22T07:14:24.444Z,50.50
2019-03-22T07:15:26.663Z,50.45
2019-03-22T07:16:28.873Z,50.50
2019-03-22T07:17:31.076Z,50.47
2019-03-22T07:18:33.716Z,50.59
2019-03-22T07:19:35.968Z,50.51
2019-03-22T07:20:38.158Z,50.43
2019-03-22T07:21:40.358Z,50.46
2019-03-22T07:22:42.556Z,50.30
2019-03-22T07:23:44.782Z,50.33
2019-03-22T07:24:46.994Z,50.40
2019-03-22T07:25:49.188Z,50.45
2019-03-22T07:26:51.497Z,50.40
2019-03-22T07:27:53.727Z,50.37
2019-03-22T07:28:55.927Z,50.41
2019-03-22T07:30:00.911Z,50.42
2019-03-22T07:31:03.194Z,50.46
2019-03-22T07:32:05.397Z,50.33
2019-03-22T07:33:07.596Z,50.30
2019-03-22T07:34:09.994Z,50.46
2019-03-22T07:35:12.190Z,50.53
2019-03-22T07:36:14.408Z,50.39
2019-03-22T07:37:16.621Z,50.40
2019-03-22T07:38:18.839Z,50.37
2019-03-22T07:39:21.054Z,50.36
2019-03-22T07:40:23.268Z,50.35
2019-03-22T07:41:25.479Z,50.38
2019-03-22T07:42:31.290Z,50.49
2019-03-22T07:43:35.021Z,50.47
2019-03-22T07:44:37.242Z,50.37
2019-03-22T07:45:39.442Z,50.44
2019-03-22T07:46:41.572Z,50.31
2019-03-22T07:47:43.783Z,50.36
2019-03-22T07:48:46.003Z,50.32
2019-03-22T07:49:49.381Z,50.38
2019-03-22T07:50:51.549Z,50.43
2019-03-22T07:51:53.736Z,50.41
2019-03-22T07:52:55.946Z,50.41
2019-03-22T07:53:58.168Z,50.44
2019-03-22T07:55:00.432Z,50.46
2019-03-22T07:56:02.591Z,50.42
2019-03-22T07:57:04.800Z,50.45
2019-03-22T07:58:07.016Z,50.50
2019-03-22T07:59:09.946Z,50.49
2019-03-22T08:00:12.286Z,50.41
2019-03-22T08:01:14.497Z,50.44
2019-03-22T08:02:16.701Z,50.45
2019-03-22T08:03:18.899Z,50.47
2019-03-22T08:04:21.127Z,50.43
2019-03-22T08:05:23.337Z,50.55
2019-03-22T08:06:25.641Z,50.52
2019-03-22T08:07:27.839Z,50.60
2019-03-22T08:08:30.051Z,50.41
2019-03-22T08:09:32.287Z,50.40
2019-03-22T08:10:34.485Z,50.43
2019-03-22T08:11:38.272Z,50.40
2019-03-22T08:12:40.500Z,50.34
2019-03-22T08:13:42.681Z,50.41
2019-03-22T08:14:44.887Z,50.41
2019-03-22T08:15:47.093Z,50.46
2019-03-22T08:16:49.303Z,50.45
2019-03-22T08:17:51.850Z,50.50
2019-03-22T08:18:54.049Z,50.49
2019-03-22T08:19:57.355Z,50.50
2019-03-22T08:21:05.648Z,50.49
2019-03-22T08:22:06.822Z,50.50
2019-03-22T08:23:09.023Z,50.49
2019-03-22T08:24:11.183Z,50.45
2019-03-22T08:25:13.503Z,50.47
2019-03-22T08:26:15.723Z,50.41
2019-03-22T08:27:17.907Z,50.48
2019-03-22T08:28:20.041Z,50.50
2019-03-22T08:29:25.038Z,50.53
2019-03-22T08:30:27.254Z,50.66
2019-03-22T08:31:29.477Z,50.67
2019-03-22T08:32:32.943Z,50.71
2019-03-22T08:33:36.295Z,50.64
2019-03-22T08:34:38.527Z,50.50
2019-03-22T08:35:40.800Z,50.52
2019-03-22T08:36:43.033Z,50.62
2019-03-22T08:37:53.076Z,50.76
2019-03-22T08:38:55.373Z,52.37
2019-03-22T08:39:57.581Z,52.21
2019-03-22T08:40:59.833Z,53.12
2019-03-22T08:42:02.105Z,53.42
2019-03-22T08:43:04.575Z,53.45
2019-03-22T08:44:06.809Z,53.69
2019-03-22T08:45:11.239Z,53.58
2019-03-22T08:46:12.865Z,54.07
2019-03-22T08:47:15.174Z,54.31
2019-03-22T08:48:17.409Z,54.31
2019-03-22T08:49:19.616Z,54.11
2019-03-22T08:50:21.799Z,54.41
2019-03-22T08:51:24.251Z,54.44
2019-03-22T08:52:26.443Z,54.53
2019-03-22T08:53:28.637Z,54.89
2019-03-22T08:54:30.847Z,54.94
2019-03-22T08:55:33.057Z,54.69
2019-03-22T08:56:36.258Z,54.38
2019-03-22T08:57:38.652Z,54.13
2019-03-22T08:58:40.886Z,54.41
2019-03-22T08:59:43.089Z,54.17
2019-03-22T09:00:56.853Z,53.95
2019-03-22T09:01:49.147Z,53.90
2019-03-22T09:02:51.337Z,53.76
2019-03-22T09:03:56.439Z,53.63
2019-03-22T09:04:58.667Z,53.61
2019-03-22T09:06:01.049Z,53.56
2019-03-22T09:07:03.271Z,53.51
2019-03-22T09:08:05.483Z,53.45
2019-03-22T09:09:07.693Z,53.44
2019-03-22T09:10:09.883Z,53.37
2019-03-22T09:11:12.097Z,53.22
2019-03-22T09:12:14.336Z,53.29
2019-03-22T09:13:16.591Z,53.28
2019-03-22T09:14:18.796Z,53.23
2019-03-22T09:15:21.133Z,53.19
2019-03-22T09:16:23.341Z,53.16
2019-03-22T09:17:25.562Z,53.15
2019-03-22T09:18:29.447Z,53.12
2019-03-22T09:19:31.713Z,53.43
2019-03-22T09:20:33.917Z,53.80
2019-03-22T09:21:36.113Z,54.17
2019-03-22T09:22:38.367Z,54.31
2019-03-22T09:23:40.535Z,54.47
2019-03-22T09:24:42.783Z,54.48
2019-03-22T09:25:45.007Z,54.57
2019-03-22T09:26:48.128Z,54.52
2019-03-22T09:27:50.405Z,54.55
2019-03-22T09:28:52.646Z,54.50
2019-03-22T09:29:54.924Z,54.49
2019-03-22T09:31:09.440Z,54.76
2019-03-22T09:32:01.151Z,54.58
2019-03-22T09:33:03.310Z,54.48
2019-03-22T09:34:05.521Z,54.38
2019-03-22T09:35:07.733Z,54.51
2019-03-22T09:36:09.920Z,54.64
2019-03-22T09:37:12.142Z,54.60
2019-03-22T09:38:14.341Z,54.61
2019-03-22T09:39:16.612Z,54.88
2019-03-22T09:40:18.795Z,54.72
2019-03-22T09:41:21.057Z,54.71
2019-03-22T09:42:24.882Z,54.80
2019-03-22T09:43:30.013Z,54.96
2019-03-22T09:44:42.776Z,54.97
2019-03-22T09:45:36.043Z,54.97
2019-03-22T09:46:38.229Z,54.89
2019-03-22T09:47:40.462Z,54.98
2019-03-22T09:48:42.649Z,54.88
2019-03-22T09:49:45.082Z,54.83
2019-03-22T09:50:47.289Z,54.85
2019-03-22T09:51:49.462Z,54.75
2019-03-22T09:52:51.658Z,54.42
2019-03-22T09:53:55.966Z,54.75
2019-03-22T09:54:57.815Z,54.63
2019-03-22T09:56:00.043Z,54.48
2019-03-22T09:57:02.246Z,54.40
2019-03-22T09:58:04.427Z,54.52
2019-03-22T09:59:06.658Z,54.58
2019-03-22T10:00:08.894Z,54.57
2019-03-22T10:01:23.135Z,54.44
2019-03-22T10:02:14.944Z,54.77
2019-03-22T10:03:17.187Z,54.66
2019-03-22T10:04:19.363Z,54.52
2019-03-22T10:05:21.595Z,54.41
2019-03-22T10:06:23.808Z,53.93
2019-03-22T10:07:26.001Z,53.71
2019-03-22T10:08:28.230Z,53.80
2019-03-22T10:09:30.395Z,53.63
2019-03-22T10:10:32.629Z,53.61
2019-03-22T10:11:35.067Z,53.28
2019-03-22T10:12:39.284Z,53.58
2019-03-22T10:13:41.463Z,53.50
2019-03-22T10:14:43.689Z,53.87
2019-03-22T10:15:45.899Z,53.93
2019-03-22T10:16:48.133Z,53.99
2019-03-22T10:17:50.408Z,54.30
2019-03-22T10:18:52.638Z,54.38
2019-03-22T10:19:54.851Z,54.51
2019-03-22T10:20:57.036Z,54.54
2019-03-22T10:21:59.228Z,54.49
2019-03-22T10:23:01.483Z,54.44
2019-03-22T10:24:03.882Z,54.50
2019-03-22T10:25:09.034Z,54.51
2019-03-22T10:26:11.255Z,54.42
2019-03-22T10:27:13.492Z,54.37
2019-03-22T10:28:15.688Z,54.47
2019-03-22T10:29:17.890Z,54.33
2019-03-22T10:30:20.124Z,54.32
2019-03-22T10:31:22.307Z,53.87
2019-03-22T10:32:24.546Z,54.27
2019-03-22T10:33:26.829Z,54.38
2019-03-22T10:34:29.079Z,54.46
2019-03-22T10:35:31.327Z,54.32
2019-03-22T10:36:33.494Z,54.30
2019-03-22T10:37:35.780Z,54.33
2019-03-22T10:38:38.155Z,54.40
2019-03-22T10:39:40.425Z,54.31
2019-03-22T10:40:42.598Z,54.35
2019-03-22T10:41:44.771Z,54.40
2019-03-22T10:42:47.129Z,54.31
2019-03-22T10:43:49.418Z,54.23
2019-03-22T10:44:51.680Z,54.29
2019-03-22T10:45:53.923Z,54.27
2019-03-22T10:46:56.172Z,54.28
2019-03-22T10:47:58.399Z,54.24
2019-03-22T10:49:00.603Z,54.20
2019-03-22T10:50:02.838Z,54.19
2019-03-22T10:51:05.165Z,54.24
2019-03-22T10:52:10.144Z,54.20
2019-03-22T10:53:12.346Z,54.13
2019-03-22T10:54:17.467Z,54.23
2019-03-22T10:55:29.861Z,54.10
2019-03-22T10:56:24.975Z,54.13
2019-03-22T10:57:27.351Z,54.18
2019-03-22T10:58:29.569Z,54.17
2019-03-22T10:59:31.707Z,54.11
2019-03-22T11:00:33.910Z,54.12
2019-03-22T11:01:48.256Z,54.09
2019-03-22T11:02:39.985Z,54.08
2019-03-22T11:03:42.217Z,54.05
2019-03-22T11:04:44.403Z,54.08
2019-03-22T11:05:46.619Z,54.00
2019-03-22T11:06:48.853Z,54.08
2019-03-22T11:07:51.056Z,54.01
2019-03-22T11:08:53.263Z,53.99
2019-03-22T11:09:55.487Z,53.98
2019-03-22T11:10:57.737Z,54.05
2019-03-22T11:11:59.984Z,54.07
2019-03-22T11:13:02.163Z,54.09
2019-03-22T11:14:04.391Z,54.01
2019-03-22T11:15:06.614Z,54.05
2019-03-22T11:16:08.839Z,53.97
2019-03-22T11:17:11.063Z,54.04
2019-03-22T11:18:13.312Z,54.01
2019-03-22T11:19:16.689Z,53.98
2019-03-22T11:20:18.914Z,54.13
2019-03-22T11:21:21.138Z,54.02
2019-03-22T11:22:23.343Z,54.02
2019-03-22T11:23:25.565Z,54.04
2019-03-22T11:24:27.919Z,53.95
2019-03-22T11:25:30.125Z,54.02
2019-03-22T11:26:32.316Z,54.06
2019-03-22T11:27:34.525Z,54.04
2019-03-22T11:28:36.741Z,54.05
2019-03-22T11:29:39.113Z,53.94
2019-03-22T11:30:43.661Z,53.91
2019-03-22T11:31:45.898Z,54.03
2019-03-22T11:32:48.102Z,54.05
2019-03-22T11:33:50.307Z,53.97
2019-03-22T11:34:52.533Z,53.90
2019-03-22T11:35:54.731Z,53.93
2019-03-22T11:36:56.973Z,53.86
2019-03-22T11:37:59.194Z,53.80
2019-03-22T11:39:01.407Z,53.79
2019-03-22T11:40:03.635Z,53.82
2019-03-22T11:41:05.945Z,53.73
2019-03-22T11:42:08.155Z,53.74
2019-03-22T11:43:10.356Z,53.74
2019-03-22T11:44:12.566Z,53.81
2019-03-22T11:45:17.514Z,53.76
2019-03-22T11:46:19.729Z,53.55
2019-03-22T11:47:21.947Z,53.40
2019-03-22T11:48:24.149Z,53.23
2019-03-22T11:49:26.355Z,53.16
2019-03-22T11:50:29.100Z,53.13
2019-03-22T11:51:33.169Z,53.40
2019-03-22T11:52:35.384Z,53.40
2019-03-22T11:53:37.713Z,53.43
2019-03-22T11:54:42.671Z,53.44
2019-03-22T11:55:44.885Z,53.44
2019-03-22T11:56:47.120Z,53.44
2019-03-22T11:57:49.421Z,53.42
2019-03-22T11:58:51.579Z,53.41
2019-03-22T11:59:53.777Z,53.40
2019-03-22T12:00:55.981Z,53.38
2019-03-22T12:01:58.294Z,53.38
2019-03-22T12:03:00.495Z,53.38
2019-03-22T12:04:02.699Z,53.35
2019-03-22T12:05:04.903Z,53.32
2019-03-22T12:06:07.102Z,53.30
2019-03-22T12:07:09.319Z,53.32
2019-03-22T12:08:11.542Z,53.29
2019-03-22T12:09:13.753Z,53.26
2019-03-22T12:10:15.958Z,53.27
2019-03-22T12:11:18.109Z,53.23
2019-03-22T12:12:20.327Z,53.20
2019-03-22T12:13:22.539Z,53.21
2019-03-22T12:14:24.742Z,53.19
2019-03-22T12:15:26.948Z,53.19
2019-03-22T12:16:29.153Z,53.17
2019-03-22T12:17:31.309Z,53.13
2019-03-22T12:18:33.521Z,53.12
2019-03-22T12:19:35.713Z,53.11
2019-03-22T12:20:38.107Z,53.12
2019-03-22T12:21:40.308Z,53.10
2019-03-22T12:22:42.531Z,53.10
2019-03-22T12:23:44.732Z,53.09
2019-03-22T12:24:46.962Z,53.05
2019-03-22T12:25:49.179Z,53.09
2019-03-22T12:26:51.399Z,53.06
2019-03-22T12:27:53.629Z,53.08
2019-03-22T12:28:55.778Z,53.06
2019-03-22T12:29:57.968Z,53.04
2019-03-22T12:31:00.155Z,53.05
2019-03-22T12:32:02.412Z,53.04
2019-03-22T12:33:04.616Z,53.02
2019-03-22T12:34:06.858Z,53.03
2019-03-22T12:35:10.702Z,53.00
2019-03-22T12:36:12.934Z,53.00
2019-03-22T12:37:15.192Z,53.10
2019-03-22T12:38:17.406Z,53.30
2019-03-22T12:39:19.618Z,53.56
2019-03-22T12:40:21.832Z,53.53
2019-03-22T12:41:24.048Z,53.54
2019-03-22T12:42:26.294Z,53.74
2019-03-22T12:43:28.502Z,53.79
2019-03-22T12:44:30.680Z,53.87
2019-03-22T12:45:32.958Z,53.88
2019-03-22T12:46:35.156Z,53.77
2019-03-22T12:47:37.390Z,53.74
2019-03-22T12:48:39.604Z,53.80
2019-03-22T12:49:41.817Z,53.91
2019-03-22T12:50:44.011Z,53.94
2019-03-22T12:51:46.226Z,53.91
2019-03-22T12:52:48.436Z,53.88
2019-03-22T12:53:50.652Z,53.88
2019-03-22T12:54:52.868Z,53.85
2019-03-22T12:55:57.092Z,53.85
2019-03-22T12:56:58.942Z,53.86
2019-03-22T12:58:04.233Z,53.98
2019-03-22T12:59:06.432Z,54.07
2019-03-22T13:00:08.644Z,54.10
2019-03-22T13:01:10.841Z,53.99
2019-03-22T13:02:12.976Z,53.97
2019-03-22T13:03:15.206Z,53.91
2019-03-22T13:04:17.404Z,53.95
2019-03-22T13:05:22.486Z,54.01
2019-03-22T13:06:24.702Z,53.98
2019-03-22T13:07:26.926Z,54.07
2019-03-22T13:08:29.148Z,54.03
2019-03-22T13:09:31.338Z,54.02
2019-03-22T13:10:33.466Z,53.99
2019-03-22T13:11:35.685Z,53.97
2019-03-22T13:12:37.912Z,54.05
2019-03-22T13:13:40.120Z,54.08
2019-03-22T13:14:42.311Z,54.10
2019-03-22T13:15:44.518Z,54.07
2019-03-22T13:16:46.805Z,54.13
2019-03-22T13:17:48.977Z,54.09
2019-03-22T13:18:51.189Z,54.05
2019-03-22T13:19:53.399Z,54.14
2019-03-22T13:20:55.586Z,54.13
2019-03-22T13:21:57.810Z,54.13
2019-03-22T13:23:00.070Z,54.12
2019-03-22T13:24:02.276Z,54.12